sensor_id;sensor_type;location;lat;lon;timestamp;temperature;humidity
2577;DHT22;1298;51.252;6.802;2023-08-20T00:00:48;20.80;99.90
2577;DHT22;1298;51.252;6.802;2023-08-20T00:03:34;20.70;99.90
2577;DHT22;1298;51.252;6.802;2023-08-20T00:06:21;20.70;99.90
2577;DHT22;1298;51.252;6.802;2023-08-20T00:09:07;20.60;99.90
2577;DHT22;1298;51.252;6.802;2023-08-20T00:11:54;20.70;99.90
2577;DHT22;1298;51.252;6.802;2023-08-20T00:14:53;20.70;99.90
2577;DHT22;1298;51.252;6.802;2023-08-20T00:17:40;20.60;99.90
2577;DHT22;1298;51.252;6.802;2023-08-20T00:20:27;20.60;99.90
2577;DHT22;1298;51.252;6.802;2023-08-20T00:23:14;20.60;99.90
2577;DHT22;1298;51.252;6.802;2023-08-20T00:26:00;20.60;99.90
2577;DHT22;1298;51.252;6.802;2023-08-20T00:28:48;20.60;99.90
2577;DHT22;1298;51.252;6.802;2023-08-20T00:31:33;20.60;99.90
2577;DHT22;1298;51.252;6.802;2023-08-20T00:34:19;20.70;99.90
2577;DHT22;1298;51.252;6.802;2023-08-20T00:37:04;20.70;99.90
2577;DHT22;1298;51.252;6.802;2023-08-20T00:39:50;20.70;99.90
2577;DHT22;1298;51.252;6.802;2023-08-20T00:42:36;20.70;99.90
2577;DHT22;1298;51.252;6.802;2023-08-20T00:45:24;20.70;99.90
2577;DHT22;1298;51.252;6.802;2023-08-20T00:48:10;20.70;99.90
2577;DHT22;1298;51.252;6.802;2023-08-20T00:50:57;20.70;99.90
2577;DHT22;1298;51.252;6.802;2023-08-20T00:53:43;20.70;99.90
2577;DHT22;1298;51.252;6.802;2023-08-20T00:56:29;20.70;99.90
2577;DHT22;1298;51.252;6.802;2023-08-20T00:59:15;20.60;99.90
2577;DHT22;1298;51.252;6.802;2023-08-20T01:02:02;20.60;99.90
2577;DHT22;1298;51.252;6.802;2023-08-20T01:04:49;20.60;99.90
2577;DHT22;1298;51.252;6.802;2023-08-20T01:07:42;20.60;99.90
2577;DHT22;1298;51.252;6.802;2023-08-20T01:10:37;20.60;99.90
2577;DHT22;1298;51.252;6.802;2023-08-20T01:13:25;20.60;99.90
2577;DHT22;1298;51.252;6.802;2023-08-20T01:16:10;20.60;99.90
2577;DHT22;1298;51.252;6.802;2023-08-20T01:18:57;20.60;99.90
2577;DHT22;1298;51.252;6.802;2023-08-20T01:21:50;20.60;99.90
2577;DHT22;1298;51.252;6.802;2023-08-20T01:24:47;20.50;99.90
2577;DHT22;1298;51.252;6.802;2023-08-20T01:27:43;20.50;99.90
2577;DHT22;1298;51.252;6.802;2023-08-20T01:30:37;20.50;99.90
2577;DHT22;1298;51.252;6.802;2023-08-20T01:33:23;20.50;99.90
2577;DHT22;1298;51.252;6.802;2023-08-20T01:36:08;20.50;99.90
2577;DHT22;1298;51.252;6.802;2023-08-20T01:38:54;20.50;99.90
2577;DHT22;1298;51.252;6.802;2023-08-20T01:41:40;20.50;99.90
2577;DHT22;1298;51.252;6.802;2023-08-20T01:44:25;20.50;99.90
2577;DHT22;1298;51.252;6.802;2023-08-20T01:47:12;20.50;99.90
2577;DHT22;1298;51.252;6.802;2023-08-20T01:49:58;20.50;99.90
2577;DHT22;1298;51.252;6.802;2023-08-20T01:52:43;20.50;99.90
2577;DHT22;1298;51.252;6.802;2023-08-20T01:55:29;20.40;99.90
2577;DHT22;1298;51.252;6.802;2023-08-20T01:58:15;20.40;99.90
2577;DHT22;1298;51.252;6.802;2023-08-20T02:01:00;20.40;99.90
2577;DHT22;1298;51.252;6.802;2023-08-20T02:03:47;20.40;99.90
2577;DHT22;1298;51.252;6.802;2023-08-20T02:06:33;20.40;99.90
2577;DHT22;1298;51.252;6.802;2023-08-20T02:09:19;20.40;99.90
2577;DHT22;1298;51.252;6.802;2023-08-20T02:12:05;20.40;99.90
2577;DHT22;1298;51.252;6.802;2023-08-20T02:14:50;20.40;99.90
2577;DHT22;1298;51.252;6.802;2023-08-20T02:17:36;20.40;99.90
2577;DHT22;1298;51.252;6.802;2023-08-20T02:20:23;20.40;99.90
2577;DHT22;1298;51.252;6.802;2023-08-20T02:23:08;20.40;99.90
2577;DHT22;1298;51.252;6.802;2023-08-20T02:25:54;20.40;99.90
2577;DHT22;1298;51.252;6.802;2023-08-20T02:28:40;20.40;99.90
2577;DHT22;1298;51.252;6.802;2023-08-20T02:31:25;20.30;99.90
2577;DHT22;1298;51.252;6.802;2023-08-20T02:34:11;20.40;99.90
2577;DHT22;1298;51.252;6.802;2023-08-20T02:36:58;20.40;99.90
2577;DHT22;1298;51.252;6.802;2023-08-20T02:39:44;20.50;99.90
2577;DHT22;1298;51.252;6.802;2023-08-20T02:42:29;20.40;99.90
2577;DHT22;1298;51.252;6.802;2023-08-20T02:45:15;20.40;99.90
2577;DHT22;1298;51.252;6.802;2023-08-20T02:48:00;20.50;99.90
2577;DHT22;1298;51.252;6.802;2023-08-20T02:50:46;20.50;99.90
2577;DHT22;1298;51.252;6.802;2023-08-20T02:53:33;20.50;99.90
2577;DHT22;1298;51.252;6.802;2023-08-20T02:56:18;20.40;99.90
2577;DHT22;1298;51.252;6.802;2023-08-20T02:59:04;20.30;99.90
2577;DHT22;1298;51.252;6.802;2023-08-20T03:01:50;20.30;99.90
2577;DHT22;1298;51.252;6.802;2023-08-20T03:04:35;20.20;99.90
2577;DHT22;1298;51.252;6.802;2023-08-20T03:07:21;20.20;99.90
2577;DHT22;1298;51.252;6.802;2023-08-20T03:10:08;20.10;99.90
2577;DHT22;1298;51.252;6.802;2023-08-20T03:12:54;20.10;99.90
2577;DHT22;1298;51.252;6.802;2023-08-20T03:15:39;20.00;99.90
2577;DHT22;1298;51.252;6.802;2023-08-20T03:18:25;19.90;99.90
2577;DHT22;1298;51.252;6.802;2023-08-20T03:21:11;19.90;99.90
2577;DHT22;1298;51.252;6.802;2023-08-20T03:23:56;19.90;99.90
2577;DHT22;1298;51.252;6.802;2023-08-20T03:26:43;19.90;99.90
2577;DHT22;1298;51.252;6.802;2023-08-20T03:29:30;19.80;99.90
2577;DHT22;1298;51.252;6.802;2023-08-20T03:32:15;19.90;99.90
2577;DHT22;1298;51.252;6.802;2023-08-20T03:35:01;19.80;99.90
2577;DHT22;1298;51.252;6.802;2023-08-20T03:37:47;19.90;99.90
2577;DHT22;1298;51.252;6.802;2023-08-20T03:40:32;19.80;99.90
2577;DHT22;1298;51.252;6.802;2023-08-20T03:43:19;19.80;99.90
2577;DHT22;1298;51.252;6.802;2023-08-20T03:46:05;19.80;99.90
2577;DHT22;1298;51.252;6.802;2023-08-20T03:48:50;19.90;99.90
2577;DHT22;1298;51.252;6.802;2023-08-20T03:51:36;19.90;99.90
2577;DHT22;1298;51.252;6.802;2023-08-20T03:54:21;19.90;99.90
2577;DHT22;1298;51.252;6.802;2023-08-20T03:57:07;19.80;99.90
2577;DHT22;1298;51.252;6.802;2023-08-20T03:59:54;19.80;99.90
2577;DHT22;1298;51.252;6.802;2023-08-20T04:02:39;19.70;99.90
2577;DHT22;1298;51.252;6.802;2023-08-20T04:05:25;19.70;99.90
2577;DHT22;1298;51.252;6.802;2023-08-20T04:08:11;19.60;99.90
2577;DHT22;1298;51.252;6.802;2023-08-20T04:10:56;19.60;99.90
2577;DHT22;1298;51.252;6.802;2023-08-20T04:13:42;19.60;99.90
2577;DHT22;1298;51.252;6.802;2023-08-20T04:16:29;19.50;99.90
2577;DHT22;1298;51.252;6.802;2023-08-20T04:19:15;19.60;99.90
2577;DHT22;1298;51.252;6.802;2023-08-20T04:22:00;19.50;99.90
2577;DHT22;1298;51.252;6.802;2023-08-20T04:24:46;19.50;99.90
2577;DHT22;1298;51.252;6.802;2023-08-20T04:27:32;19.40;99.90
2577;DHT22;1298;51.252;6.802;2023-08-20T04:30:17;19.30;99.90
2577;DHT22;1298;51.252;6.802;2023-08-20T04:33:04;19.30;99.90
2577;DHT22;1298;51.252;6.802;2023-08-20T04:35:50;19.30;99.90
2577;DHT22;1298;51.252;6.802;2023-08-20T04:38:36;19.30;99.90
2577;DHT22;1298;51.252;6.802;2023-08-20T04:41:21;19.30;99.90
2577;DHT22;1298;51.252;6.802;2023-08-20T04:44:07;19.30;99.90
2577;DHT22;1298;51.252;6.802;2023-08-20T04:46:52;19.20;99.90
2577;DHT22;1298;51.252;6.802;2023-08-20T04:49:39;19.20;99.90
2577;DHT22;1298;51.252;6.802;2023-08-20T04:52:25;19.20;99.90
2577;DHT22;1298;51.252;6.802;2023-08-20T04:55:10;19.20;99.90
2577;DHT22;1298;51.252;6.802;2023-08-20T04:57:56;19.20;99.90
2577;DHT22;1298;51.252;6.802;2023-08-20T05:00:42;19.30;99.90
2577;DHT22;1298;51.252;6.802;2023-08-20T05:03:28;19.30;99.90
2577;DHT22;1298;51.252;6.802;2023-08-20T05:06:15;19.30;99.90
2577;DHT22;1298;51.252;6.802;2023-08-20T05:09:00;19.30;99.90
2577;DHT22;1298;51.252;6.802;2023-08-20T05:11:46;19.30;99.90
2577;DHT22;1298;51.252;6.802;2023-08-20T05:14:32;19.30;99.90
2577;DHT22;1298;51.252;6.802;2023-08-20T05:17:17;19.30;99.90
2577;DHT22;1298;51.252;6.802;2023-08-20T05:20:03;19.30;99.90
2577;DHT22;1298;51.252;6.802;2023-08-20T05:22:50;19.40;99.90
2577;DHT22;1298;51.252;6.802;2023-08-20T05:25:36;19.40;99.90
2577;DHT22;1298;51.252;6.802;2023-08-20T05:28:21;19.40;99.90
2577;DHT22;1298;51.252;6.802;2023-08-20T05:31:07;19.40;99.90
2577;DHT22;1298;51.252;6.802;2023-08-20T05:33:54;19.40;99.90
2577;DHT22;1298;51.252;6.802;2023-08-20T05:36:40;19.50;99.90
2577;DHT22;1298;51.252;6.802;2023-08-20T05:39:29;19.50;99.90
2577;DHT22;1298;51.252;6.802;2023-08-20T05:42:15;19.50;99.90
2577;DHT22;1298;51.252;6.802;2023-08-20T05:45:00;19.50;99.90
2577;DHT22;1298;51.252;6.802;2023-08-20T05:47:46;19.60;99.90
2577;DHT22;1298;51.252;6.802;2023-08-20T05:50:31;19.60;99.90
2577;DHT22;1298;51.252;6.802;2023-08-20T05:53:17;19.70;99.90
2577;DHT22;1298;51.252;6.802;2023-08-20T05:56:04;19.80;99.90
2577;DHT22;1298;51.252;6.802;2023-08-20T05:58:49;19.90;99.90
2577;DHT22;1298;51.252;6.802;2023-08-20T06:01:35;20.00;99.90
2577;DHT22;1298;51.252;6.802;2023-08-20T06:04:21;20.10;99.90
2577;DHT22;1298;51.252;6.802;2023-08-20T06:07:07;20.10;99.90
2577;DHT22;1298;51.252;6.802;2023-08-20T06:09:52;20.20;99.90
2577;DHT22;1298;51.252;6.802;2023-08-20T06:12:39;20.30;99.90
2577;DHT22;1298;51.252;6.802;2023-08-20T06:15:24;20.20;99.90
2577;DHT22;1298;51.252;6.802;2023-08-20T06:18:10;20.30;99.90
2577;DHT22;1298;51.252;6.802;2023-08-20T06:20:55;20.40;99.90
2577;DHT22;1298;51.252;6.802;2023-08-20T06:23:41;20.50;99.90
2577;DHT22;1298;51.252;6.802;2023-08-20T06:26:26;20.50;99.90
2577;DHT22;1298;51.252;6.802;2023-08-20T06:29:13;20.60;99.90
2577;DHT22;1298;51.252;6.802;2023-08-20T06:31:59;20.70;99.90
2577;DHT22;1298;51.252;6.802;2023-08-20T06:34:45;20.80;99.90
2577;DHT22;1298;51.252;6.802;2023-08-20T06:37:30;20.90;99.90
2577;DHT22;1298;51.252;6.802;2023-08-20T06:40:16;20.90;99.90
2577;DHT22;1298;51.252;6.802;2023-08-20T06:43:01;21.00;99.90
2577;DHT22;1298;51.252;6.802;2023-08-20T06:45:48;21.00;99.90
2577;DHT22;1298;51.252;6.802;2023-08-20T06:48:34;21.20;99.90
2577;DHT22;1298;51.252;6.802;2023-08-20T06:51:20;21.20;99.90
2577;DHT22;1298;51.252;6.802;2023-08-20T06:54:06;21.30;99.90
2577;DHT22;1298;51.252;6.802;2023-08-20T06:56:51;21.40;99.90
2577;DHT22;1298;51.252;6.802;2023-08-20T06:59:37;21.60;99.90
2577;DHT22;1298;51.252;6.802;2023-08-20T07:02:24;21.70;99.90
2577;DHT22;1298;51.252;6.802;2023-08-20T07:05:10;21.80;99.90
2577;DHT22;1298;51.252;6.802;2023-08-20T07:07:56;21.80;99.90
2577;DHT22;1298;51.252;6.802;2023-08-20T07:10:41;21.90;99.90
2577;DHT22;1298;51.252;6.802;2023-08-20T07:13:27;22.00;99.90
2577;DHT22;1298;51.252;6.802;2023-08-20T07:16:12;22.00;99.90
2577;DHT22;1298;51.252;6.802;2023-08-20T07:18:59;22.20;99.90
2577;DHT22;1298;51.252;6.802;2023-08-20T07:21:45;22.30;99.90
2577;DHT22;1298;51.252;6.802;2023-08-20T07:24:30;22.40;99.90
2577;DHT22;1298;51.252;6.802;2023-08-20T07:27:19;22.50;99.90
2577;DHT22;1298;51.252;6.802;2023-08-20T07:30:05;22.50;99.90
2577;DHT22;1298;51.252;6.802;2023-08-20T07:32:51;22.60;99.90
2577;DHT22;1298;51.252;6.802;2023-08-20T07:35:38;22.70;99.90
2577;DHT22;1298;51.252;6.802;2023-08-20T07:38:24;22.80;99.90
2577;DHT22;1298;51.252;6.802;2023-08-20T07:41:09;22.90;99.90
2577;DHT22;1298;51.252;6.802;2023-08-20T07:43:55;23.00;99.90
2577;DHT22;1298;51.252;6.802;2023-08-20T07:46:40;23.10;99.90
2577;DHT22;1298;51.252;6.802;2023-08-20T07:49:26;23.20;99.90
2577;DHT22;1298;51.252;6.802;2023-08-20T07:52:13;23.30;99.90
2577;DHT22;1298;51.252;6.802;2023-08-20T07:54:59;23.30;99.90
2577;DHT22;1298;51.252;6.802;2023-08-20T07:57:44;23.40;99.90
2577;DHT22;1298;51.252;6.802;2023-08-20T08:00:30;23.50;99.90
2577;DHT22;1298;51.252;6.802;2023-08-20T08:03:15;23.60;99.90
2577;DHT22;1298;51.252;6.802;2023-08-20T08:06:01;23.70;99.90
2577;DHT22;1298;51.252;6.802;2023-08-20T08:08:48;23.80;99.90
2577;DHT22;1298;51.252;6.802;2023-08-20T08:11:33;23.90;99.90
2577;DHT22;1298;51.252;6.802;2023-08-20T08:14:19;24.00;99.90
2577;DHT22;1298;51.252;6.802;2023-08-20T08:17:05;24.10;99.90
2577;DHT22;1298;51.252;6.802;2023-08-20T08:19:51;24.20;99.90
2577;DHT22;1298;51.252;6.802;2023-08-20T08:22:38;24.20;99.90
2577;DHT22;1298;51.252;6.802;2023-08-20T08:25:25;24.20;99.90
2577;DHT22;1298;51.252;6.802;2023-08-20T08:28:11;24.40;99.90
2577;DHT22;1298;51.252;6.802;2023-08-20T08:30:56;24.40;99.90
2577;DHT22;1298;51.252;6.802;2023-08-20T08:33:42;24.50;99.90
2577;DHT22;1298;51.252;6.802;2023-08-20T08:36:28;24.50;99.90
2577;DHT22;1298;51.252;6.802;2023-08-20T08:39:13;24.60;99.90
2577;DHT22;1298;51.252;6.802;2023-08-20T08:42:02;24.70;99.90
2577;DHT22;1298;51.252;6.802;2023-08-20T08:44:48;24.70;99.90
2577;DHT22;1298;51.252;6.802;2023-08-20T08:47:34;24.70;99.90
2577;DHT22;1298;51.252;6.802;2023-08-20T08:50:21;24.80;99.90
2577;DHT22;1298;51.252;6.802;2023-08-20T08:53:06;24.90;99.90
2577;DHT22;1298;51.252;6.802;2023-08-20T08:55:53;25.10;99.90
2577;DHT22;1298;51.252;6.802;2023-08-20T08:58:39;25.20;99.90
2577;DHT22;1298;51.252;6.802;2023-08-20T09:01:25;25.30;99.90
2577;DHT22;1298;51.252;6.802;2023-08-20T09:04:11;25.40;99.90
2577;DHT22;1298;51.252;6.802;2023-08-20T09:06:56;25.60;99.90
2577;DHT22;1298;51.252;6.802;2023-08-20T09:09:42;25.60;99.90
2577;DHT22;1298;51.252;6.802;2023-08-20T09:12:34;25.70;99.90
2577;DHT22;1298;51.252;6.802;2023-08-20T09:15:21;25.70;99.90
2577;DHT22;1298;51.252;6.802;2023-08-20T09:18:09;25.60;99.90
2577;DHT22;1298;51.252;6.802;2023-08-20T09:20:56;25.60;99.90
2577;DHT22;1298;51.252;6.802;2023-08-20T09:23:45;25.60;99.90
2577;DHT22;1298;51.252;6.802;2023-08-20T09:26:31;25.80;99.90
2577;DHT22;1298;51.252;6.802;2023-08-20T09:29:16;26.00;99.90
2577;DHT22;1298;51.252;6.802;2023-08-20T09:32:04;26.00;99.90
2577;DHT22;1298;51.252;6.802;2023-08-20T09:34:50;25.90;99.90
2577;DHT22;1298;51.252;6.802;2023-08-20T09:37:36;25.90;99.90
2577;DHT22;1298;51.252;6.802;2023-08-20T09:40:22;26.00;99.90
2577;DHT22;1298;51.252;6.802;2023-08-20T09:43:09;26.10;99.90
2577;DHT22;1298;51.252;6.802;2023-08-20T09:45:58;26.10;99.90
2577;DHT22;1298;51.252;6.802;2023-08-20T09:48:48;26.20;99.90
2577;DHT22;1298;51.252;6.802;2023-08-20T09:51:36;26.30;99.90
2577;DHT22;1298;51.252;6.802;2023-08-20T09:54:31;26.60;99.90
2577;DHT22;1298;51.252;6.802;2023-08-20T09:57:32;26.80;99.90
2577;DHT22;1298;51.252;6.802;2023-08-20T10:00:18;26.80;99.90
2577;DHT22;1298;51.252;6.802;2023-08-20T10:03:04;26.60;99.90
2577;DHT22;1298;51.252;6.802;2023-08-20T10:05:51;26.70;99.90
2577;DHT22;1298;51.252;6.802;2023-08-20T10:08:38;26.90;99.90
2577;DHT22;1298;51.252;6.802;2023-08-20T10:11:23;27.00;99.90
2577;DHT22;1298;51.252;6.802;2023-08-20T10:14:09;26.90;99.90
2577;DHT22;1298;51.252;6.802;2023-08-20T10:16:54;26.60;99.90
2577;DHT22;1298;51.252;6.802;2023-08-20T10:19:40;26.40;99.90
2577;DHT22;1298;51.252;6.802;2023-08-20T10:22:34;26.20;99.90
2577;DHT22;1298;51.252;6.802;2023-08-20T10:25:25;26.30;99.90
2577;DHT22;1298;51.252;6.802;2023-08-20T10:28:12;26.50;99.90
2577;DHT22;1298;51.252;6.802;2023-08-20T10:31:09;26.70;99.90
2577;DHT22;1298;51.252;6.802;2023-08-20T10:33:56;26.90;99.90
2577;DHT22;1298;51.252;6.802;2023-08-20T10:36:43;26.70;99.90
2577;DHT22;1298;51.252;6.802;2023-08-20T10:39:30;27.00;99.90
2577;DHT22;1298;51.252;6.802;2023-08-20T10:42:28;27.00;99.90
2577;DHT22;1298;51.252;6.802;2023-08-20T10:45:14;27.10;99.90
2577;DHT22;1298;51.252;6.802;2023-08-20T10:47:59;27.30;99.90
2577;DHT22;1298;51.252;6.802;2023-08-20T10:50:45;27.50;99.90
2577;DHT22;1298;51.252;6.802;2023-08-20T10:53:31;27.60;99.90
2577;DHT22;1298;51.252;6.802;2023-08-20T10:56:18;27.70;99.90
2577;DHT22;1298;51.252;6.802;2023-08-20T10:59:07;27.80;99.90
2577;DHT22;1298;51.252;6.802;2023-08-20T11:01:53;27.50;99.90
2577;DHT22;1298;51.252;6.802;2023-08-20T11:04:40;27.00;99.90
2577;DHT22;1298;51.252;6.802;2023-08-20T11:07:26;27.10;99.90
2577;DHT22;1298;51.252;6.802;2023-08-20T11:10:13;27.20;99.90
2577;DHT22;1298;51.252;6.802;2023-08-20T11:13:01;27.30;99.90
2577;DHT22;1298;51.252;6.802;2023-08-20T11:15:47;27.30;99.90
2577;DHT22;1298;51.252;6.802;2023-08-20T11:18:33;27.10;99.90
2577;DHT22;1298;51.252;6.802;2023-08-20T11:21:20;27.00;99.90
2577;DHT22;1298;51.252;6.802;2023-08-20T11:24:06;26.90;99.90
2577;DHT22;1298;51.252;6.802;2023-08-20T11:26:53;26.90;99.90
2577;DHT22;1298;51.252;6.802;2023-08-20T11:29:43;27.10;99.90
2577;DHT22;1298;51.252;6.802;2023-08-20T11:32:30;27.10;99.90
2577;DHT22;1298;51.252;6.802;2023-08-20T11:35:16;27.10;99.90
2577;DHT22;1298;51.252;6.802;2023-08-20T11:38:03;27.10;99.90
2577;DHT22;1298;51.252;6.802;2023-08-20T11:40:48;27.30;99.90
2577;DHT22;1298;51.252;6.802;2023-08-20T11:43:34;27.40;99.90
2577;DHT22;1298;51.252;6.802;2023-08-20T11:46:22;27.50;99.90
2577;DHT22;1298;51.252;6.802;2023-08-20T11:49:09;27.40;99.90
2577;DHT22;1298;51.252;6.802;2023-08-20T11:51:55;27.40;99.90
2577;DHT22;1298;51.252;6.802;2023-08-20T11:54:42;27.40;99.90
2577;DHT22;1298;51.252;6.802;2023-08-20T11:57:28;27.60;99.90
2577;DHT22;1298;51.252;6.802;2023-08-20T12:00:24;27.70;99.90
2577;DHT22;1298;51.252;6.802;2023-08-20T12:03:11;27.90;99.90
2577;DHT22;1298;51.252;6.802;2023-08-20T12:05:57;28.10;99.90
2577;DHT22;1298;51.252;6.802;2023-08-20T12:08:43;28.30;99.90
2577;DHT22;1298;51.252;6.802;2023-08-20T12:11:29;28.40;99.90
2577;DHT22;1298;51.252;6.802;2023-08-20T12:14:15;28.30;99.90
2577;DHT22;1298;51.252;6.802;2023-08-20T12:17:00;27.70;99.90
2577;DHT22;1298;51.252;6.802;2023-08-20T12:19:48;27.70;99.90
2577;DHT22;1298;51.252;6.802;2023-08-20T12:22:34;27.60;99.90
2577;DHT22;1298;51.252;6.802;2023-08-20T12:25:20;27.50;99.90
2577;DHT22;1298;51.252;6.802;2023-08-20T12:28:06;27.50;99.90
2577;DHT22;1298;51.252;6.802;2023-08-20T12:30:52;27.50;99.90
2577;DHT22;1298;51.252;6.802;2023-08-20T12:33:37;27.70;99.90
2577;DHT22;1298;51.252;6.802;2023-08-20T12:36:24;28.10;99.90
2577;DHT22;1298;51.252;6.802;2023-08-20T12:39:10;28.50;99.90
2577;DHT22;1298;51.252;6.802;2023-08-20T12:41:55;28.70;99.90
2577;DHT22;1298;51.252;6.802;2023-08-20T12:44:41;29.00;99.90
2577;DHT22;1298;51.252;6.802;2023-08-20T12:47:27;29.00;99.90
2577;DHT22;1298;51.252;6.802;2023-08-20T12:50:12;28.80;99.90
2577;DHT22;1298;51.252;6.802;2023-08-20T12:53:00;28.80;99.90
2577;DHT22;1298;51.252;6.802;2023-08-20T12:55:45;28.90;99.90
2577;DHT22;1298;51.252;6.802;2023-08-20T12:58:31;29.40;99.90
2577;DHT22;1298;51.252;6.802;2023-08-20T13:01:16;29.20;99.90
2577;DHT22;1298;51.252;6.802;2023-08-20T13:04:03;29.00;99.90
2577;DHT22;1298;51.252;6.802;2023-08-20T13:06:49;28.90;99.90
2577;DHT22;1298;51.252;6.802;2023-08-20T13:09:36;29.30;99.90
2577;DHT22;1298;51.252;6.802;2023-08-20T13:12:25;29.60;99.90
2577;DHT22;1298;51.252;6.802;2023-08-20T13:15:12;30.00;99.90
2577;DHT22;1298;51.252;6.802;2023-08-20T13:17:59;30.40;99.90
2577;DHT22;1298;51.252;6.802;2023-08-20T13:20:44;30.80;99.90
2577;DHT22;1298;51.252;6.802;2023-08-20T13:23:30;31.50;99.90
2577;DHT22;1298;51.252;6.802;2023-08-20T13:26:17;31.90;99.90
2577;DHT22;1298;51.252;6.802;2023-08-20T13:29:04;31.90;99.90
2577;DHT22;1298;51.252;6.802;2023-08-20T13:31:50;31.50;99.90
2577;DHT22;1298;51.252;6.802;2023-08-20T13:34:35;31.40;99.90
2577;DHT22;1298;51.252;6.802;2023-08-20T13:37:21;32.20;99.90
2577;DHT22;1298;51.252;6.802;2023-08-20T13:40:08;32.90;99.90
2577;DHT22;1298;51.252;6.802;2023-08-20T13:42:55;32.70;99.90
2577;DHT22;1298;51.252;6.802;2023-08-20T13:45:40;32.10;99.90
2577;DHT22;1298;51.252;6.802;2023-08-20T13:48:26;32.70;99.90
2577;DHT22;1298;51.252;6.802;2023-08-20T13:51:12;33.40;99.90
2577;DHT22;1298;51.252;6.802;2023-08-20T13:53:57;33.70;99.90
2577;DHT22;1298;51.252;6.802;2023-08-20T13:56:43;33.40;99.90
2577;DHT22;1298;51.252;6.802;2023-08-20T13:59:30;32.90;99.90
2577;DHT22;1298;51.252;6.802;2023-08-20T14:02:15;32.60;99.90
2577;DHT22;1298;51.252;6.802;2023-08-20T14:05:01;32.70;99.90
2577;DHT22;1298;51.252;6.802;2023-08-20T14:07:48;33.20;99.90
2577;DHT22;1298;51.252;6.802;2023-08-20T14:10:34;33.60;99.90
2577;DHT22;1298;51.252;6.802;2023-08-20T14:13:19;33.70;99.90
2577;DHT22;1298;51.252;6.802;2023-08-20T14:16:06;33.80;99.90
2577;DHT22;1298;51.252;6.802;2023-08-20T14:18:52;33.60;99.90
2577;DHT22;1298;51.252;6.802;2023-08-20T14:21:38;34.30;99.90
2577;DHT22;1298;51.252;6.802;2023-08-20T14:24:23;34.90;99.90
2577;DHT22;1298;51.252;6.802;2023-08-20T14:27:09;35.60;99.90
2577;DHT22;1298;51.252;6.802;2023-08-20T14:29:54;36.20;99.90
2577;DHT22;1298;51.252;6.802;2023-08-20T14:32:41;35.40;99.90
2577;DHT22;1298;51.252;6.802;2023-08-20T14:35:27;35.10;99.90
2577;DHT22;1298;51.252;6.802;2023-08-20T14:38:13;35.20;99.90
2577;DHT22;1298;51.252;6.802;2023-08-20T14:40:59;35.40;99.90
2577;DHT22;1298;51.252;6.802;2023-08-20T14:43:45;35.90;99.90
2577;DHT22;1298;51.252;6.802;2023-08-20T14:46:30;35.40;99.90
2577;DHT22;1298;51.252;6.802;2023-08-20T14:49:17;36.00;99.90
2577;DHT22;1298;51.252;6.802;2023-08-20T14:52:03;36.20;99.90
2577;DHT22;1298;51.252;6.802;2023-08-20T14:54:49;36.00;99.90
2577;DHT22;1298;51.252;6.802;2023-08-20T14:57:34;35.00;99.90
2577;DHT22;1298;51.252;6.802;2023-08-20T15:00:20;35.50;99.90
2577;DHT22;1298;51.252;6.802;2023-08-20T15:03:07;36.20;99.90
2577;DHT22;1298;51.252;6.802;2023-08-20T15:05:53;35.60;99.90
2577;DHT22;1298;51.252;6.802;2023-08-20T15:08:39;35.60;99.90
2577;DHT22;1298;51.252;6.802;2023-08-20T15:11:25;36.10;99.90
2577;DHT22;1298;51.252;6.802;2023-08-20T15:14:12;36.10;99.90
2577;DHT22;1298;51.252;6.802;2023-08-20T15:16:57;35.70;99.90
2577;DHT22;1298;51.252;6.802;2023-08-20T15:19:43;35.00;99.90
2577;DHT22;1298;51.252;6.802;2023-08-20T15:22:30;35.10;99.90
2577;DHT22;1298;51.252;6.802;2023-08-20T15:25:15;35.60;99.90
2577;DHT22;1298;51.252;6.802;2023-08-20T15:28:00;36.30;99.90
2577;DHT22;1298;51.252;6.802;2023-08-20T15:30:47;36.90;99.90
2577;DHT22;1298;51.252;6.802;2023-08-20T15:33:33;37.20;99.90
2577;DHT22;1298;51.252;6.802;2023-08-20T15:36:18;37.30;99.90
2577;DHT22;1298;51.252;6.802;2023-08-20T15:39:05;37.60;99.90
2577;DHT22;1298;51.252;6.802;2023-08-20T15:41:51;37.80;99.90
2577;DHT22;1298;51.252;6.802;2023-08-20T15:44:37;38.40;99.90
2577;DHT22;1298;51.252;6.802;2023-08-20T15:47:23;38.70;99.90
2577;DHT22;1298;51.252;6.802;2023-08-20T15:50:09;38.60;99.90
2577;DHT22;1298;51.252;6.802;2023-08-20T15:52:54;38.90;99.90
2577;DHT22;1298;51.252;6.802;2023-08-20T15:55:41;39.10;99.90
2577;DHT22;1298;51.252;6.802;2023-08-20T15:58:27;39.20;99.90
2577;DHT22;1298;51.252;6.802;2023-08-20T16:01:12;39.10;99.90
2577;DHT22;1298;51.252;6.802;2023-08-20T16:03:58;38.60;99.90
2577;DHT22;1298;51.252;6.802;2023-08-20T16:06:43;37.50;99.90
2577;DHT22;1298;51.252;6.802;2023-08-20T16:09:29;37.00;99.90
2577;DHT22;1298;51.252;6.802;2023-08-20T16:12:16;36.50;99.90
2577;DHT22;1298;51.252;6.802;2023-08-20T16:15:02;36.40;99.90
2577;DHT22;1298;51.252;6.802;2023-08-20T16:17:48;36.60;99.90
2577;DHT22;1298;51.252;6.802;2023-08-20T16:20:33;35.90;99.90
2577;DHT22;1298;51.252;6.802;2023-08-20T16:23:20;35.10;99.90
2577;DHT22;1298;51.252;6.802;2023-08-20T16:26:06;34.60;99.90
2577;DHT22;1298;51.252;6.802;2023-08-20T16:28:53;34.70;99.90
2577;DHT22;1298;51.252;6.802;2023-08-20T16:31:38;34.80;99.90
2577;DHT22;1298;51.252;6.802;2023-08-20T16:34:24;35.30;99.90
2577;DHT22;1298;51.252;6.802;2023-08-20T16:37:10;35.50;99.90
2577;DHT22;1298;51.252;6.802;2023-08-20T16:39:57;35.30;99.90
2577;DHT22;1298;51.252;6.802;2023-08-20T16:42:42;35.50;99.90
2577;DHT22;1298;51.252;6.802;2023-08-20T16:45:30;35.30;99.90
2577;DHT22;1298;51.252;6.802;2023-08-20T16:48:15;35.10;99.90
2577;DHT22;1298;51.252;6.802;2023-08-20T16:51:01;35.10;99.90
2577;DHT22;1298;51.252;6.802;2023-08-20T16:53:46;33.70;99.90
2577;DHT22;1298;51.252;6.802;2023-08-20T16:56:32;33.00;99.90
2577;DHT22;1298;51.252;6.802;2023-08-20T16:59:18;33.20;99.90
2577;DHT22;1298;51.252;6.802;2023-08-20T17:02:05;33.70;99.90
2577;DHT22;1298;51.252;6.802;2023-08-20T17:04:51;34.40;99.90
2577;DHT22;1298;51.252;6.802;2023-08-20T17:07:38;34.90;99.90
2577;DHT22;1298;51.252;6.802;2023-08-20T17:10:25;35.10;99.90
2577;DHT22;1298;51.252;6.802;2023-08-20T17:13:10;34.70;99.90
2577;DHT22;1298;51.252;6.802;2023-08-20T17:15:56;34.60;99.90
2577;DHT22;1298;51.252;6.802;2023-08-20T17:18:43;34.40;99.90
2577;DHT22;1298;51.252;6.802;2023-08-20T17:21:28;34.40;99.90
2577;DHT22;1298;51.252;6.802;2023-08-20T17:24:14;34.50;99.90
2577;DHT22;1298;51.252;6.802;2023-08-20T17:26:59;34.60;99.90
2577;DHT22;1298;51.252;6.802;2023-08-20T17:29:46;34.30;99.90
2577;DHT22;1298;51.252;6.802;2023-08-20T17:32:33;33.80;99.90
2577;DHT22;1298;51.252;6.802;2023-08-20T17:35:20;33.60;99.90
2577;DHT22;1298;51.252;6.802;2023-08-20T17:38:05;33.70;99.90
2577;DHT22;1298;51.252;6.802;2023-08-20T17:40:50;34.00;99.90
2577;DHT22;1298;51.252;6.802;2023-08-20T17:43:36;33.90;99.90
2577;DHT22;1298;51.252;6.802;2023-08-20T17:50:04;33.80;99.90
2577;DHT22;1298;51.252;6.802;2023-08-20T17:52:52;33.60;99.90
2577;DHT22;1298;51.252;6.802;2023-08-20T17:55:38;33.60;99.90
2577;DHT22;1298;51.252;6.802;2023-08-20T17:58:24;33.50;99.90
2577;DHT22;1298;51.252;6.802;2023-08-20T18:01:10;33.20;99.90
2577;DHT22;1298;51.252;6.802;2023-08-20T18:03:56;33.00;99.90
2577;DHT22;1298;51.252;6.802;2023-08-20T18:06:42;32.80;99.90
2577;DHT22;1298;51.252;6.802;2023-08-20T18:09:30;32.50;99.90